sensor_id;sensor_type;location;lat;lon;timestamp;P1;durP1;ratioP1;P2;durP2;ratioP2
69542;SDS011;56762;49.494;11.768;2022-12-11T00:01:12;16.98;;;7.50;;
69542;SDS011;56762;49.494;11.768;2022-12-11T00:03:43;13.40;;;6.47;;
69542;SDS011;56762;49.494;11.768;2022-12-11T00:06:12;16.80;;;6.75;;
69542;SDS011;56762;49.494;11.768;2022-12-11T00:08:42;13.88;;;6.18;;
69542;SDS011;56762;49.494;11.768;2022-12-11T00:11:10;17.40;;;7.03;;
69542;SDS011;56762;49.494;11.768;2022-12-11T00:13:40;15.10;;;6.28;;
69542;SDS011;56762;49.494;11.768;2022-12-11T00:16:10;12.95;;;6.00;;
69542;SDS011;56762;49.494;11.768;2022-12-11T00:18:38;13.43;;;6.13;;
69542;SDS011;56762;49.494;11.768;2022-12-11T00:21:07;15.00;;;6.32;;
69542;SDS011;56762;49.494;11.768;2022-12-11T00:23:38;14.60;;;6.20;;
69542;SDS011;56762;49.494;11.768;2022-12-11T00:26:06;15.50;;;6.90;;
69542;SDS011;56762;49.494;11.768;2022-12-11T00:28:36;16.00;;;6.05;;
69542;SDS011;56762;49.494;11.768;2022-12-11T00:31:04;14.38;;;5.90;;
69542;SDS011;56762;49.494;11.768;2022-12-11T00:33:34;15.30;;;6.00;;
69542;SDS011;56762;49.494;11.768;2022-12-11T00:36:03;12.37;;;5.70;;
69542;SDS011;56762;49.494;11.768;2022-12-11T00:38:37;14.02;;;6.00;;
69542;SDS011;56762;49.494;11.768;2022-12-11T00:41:04;18.42;;;6.45;;
69542;SDS011;56762;49.494;11.768;2022-12-11T00:43:32;17.58;;;7.57;;
69542;SDS011;56762;49.494;11.768;2022-12-11T00:46:01;16.98;;;7.30;;
69542;SDS011;56762;49.494;11.768;2022-12-11T00:48:29;13.70;;;6.87;;
69542;SDS011;56762;49.494;11.768;2022-12-11T00:50:59;16.50;;;6.55;;
69542;SDS011;56762;49.494;11.768;2022-12-11T00:53:26;14.52;;;6.75;;
69542;SDS011;56762;49.494;11.768;2022-12-11T00:55:54;16.98;;;6.68;;
69542;SDS011;56762;49.494;11.768;2022-12-11T00:58:23;15.18;;;6.75;;
69542;SDS011;56762;49.494;11.768;2022-12-11T01:00:51;17.03;;;7.37;;
69542;SDS011;56762;49.494;11.768;2022-12-11T01:03:19;15.63;;;6.53;;
69542;SDS011;56762;49.494;11.768;2022-12-11T01:05:50;14.15;;;6.20;;
69542;SDS011;56762;49.494;11.768;2022-12-11T01:08:21;13.90;;;6.07;;
69542;SDS011;56762;49.494;11.768;2022-12-11T01:10:59;14.60;;;6.18;;
69542;SDS011;56762;49.494;11.768;2022-12-11T01:13:27;14.20;;;6.20;;
69542;SDS011;56762;49.494;11.768;2022-12-11T01:15:57;12.13;;;5.80;;
69542;SDS011;56762;49.494;11.768;2022-12-11T01:18:26;14.50;;;6.78;;
69542;SDS011;56762;49.494;11.768;2022-12-11T01:20:54;14.15;;;6.72;;
69542;SDS011;56762;49.494;11.768;2022-12-11T01:23:23;15.15;;;6.20;;
69542;SDS011;56762;49.494;11.768;2022-12-11T01:25:51;16.33;;;6.13;;
69542;SDS011;56762;49.494;11.768;2022-12-11T01:28:19;13.45;;;5.75;;
69542;SDS011;56762;49.494;11.768;2022-12-11T01:30:47;12.43;;;6.07;;
69542;SDS011;56762;49.494;11.768;2022-12-11T01:33:16;12.43;;;6.05;;
69542;SDS011;56762;49.494;11.768;2022-12-11T01:35:44;14.70;;;6.22;;
69542;SDS011;56762;49.494;11.768;2022-12-11T01:38:12;14.57;;;6.13;;
69542;SDS011;56762;49.494;11.768;2022-12-11T01:40:45;13.48;;;6.22;;
69542;SDS011;56762;49.494;11.768;2022-12-11T01:43:14;14.25;;;5.97;;
69542;SDS011;56762;49.494;11.768;2022-12-11T01:45:43;17.58;;;6.50;;
69542;SDS011;56762;49.494;11.768;2022-12-11T01:48:13;13.30;;;6.15;;
69542;SDS011;56762;49.494;11.768;2022-12-11T01:50:46;13.53;;;6.00;;
69542;SDS011;56762;49.494;11.768;2022-12-11T01:53:17;15.88;;;5.93;;
69542;SDS011;56762;49.494;11.768;2022-12-11T01:55:50;15.25;;;6.75;;
69542;SDS011;56762;49.494;11.768;2022-12-11T01:58:22;12.65;;;5.22;;
69542;SDS011;56762;49.494;11.768;2022-12-11T02:00:54;12.50;;;6.00;;
69542;SDS011;56762;49.494;11.768;2022-12-11T02:03:24;14.10;;;5.87;;
69542;SDS011;56762;49.494;11.768;2022-12-11T02:05:57;13.52;;;6.18;;
69542;SDS011;56762;49.494;11.768;2022-12-11T02:08:27;13.93;;;5.72;;
69542;SDS011;56762;49.494;11.768;2022-12-11T02:11:00;14.25;;;5.80;;
69542;SDS011;56762;49.494;11.768;2022-12-11T02:13:38;13.77;;;5.80;;
69542;SDS011;56762;49.494;11.768;2022-12-11T02:16:16;13.50;;;4.97;;
69542;SDS011;56762;49.494;11.768;2022-12-11T02:18:53;13.52;;;6.18;;
69542;SDS011;56762;49.494;11.768;2022-12-11T02:21:26;14.13;;;5.95;;
69542;SDS011;56762;49.494;11.768;2022-12-11T02:24:18;13.48;;;5.90;;
69542;SDS011;56762;49.494;11.768;2022-12-11T02:27:15;12.68;;;5.80;;
69542;SDS011;56762;49.494;11.768;2022-12-11T02:29:52;12.30;;;5.93;;
69542;SDS011;56762;49.494;11.768;2022-12-11T02:32:25;14.23;;;5.53;;
69542;SDS011;56762;49.494;11.768;2022-12-11T02:34:57;14.63;;;5.70;;
69542;SDS011;56762;49.494;11.768;2022-12-11T02:37:29;14.13;;;6.07;;
69542;SDS011;56762;49.494;11.768;2022-12-11T02:39:59;14.63;;;6.30;;
69542;SDS011;56762;49.494;11.768;2022-12-11T02:42:32;15.07;;;6.27;;
69542;SDS011;56762;49.494;11.768;2022-12-11T02:45:03;13.68;;;6.00;;
69542;SDS011;56762;49.494;11.768;2022-12-11T02:47:34;15.60;;;6.22;;
69542;SDS011;56762;49.494;11.768;2022-12-11T02:50:06;16.73;;;6.50;;
69542;SDS011;56762;49.494;11.768;2022-12-11T02:52:39;15.65;;;6.80;;
69542;SDS011;56762;49.494;11.768;2022-12-11T02:55:12;15.47;;;6.73;;
69542;SDS011;56762;49.494;11.768;2022-12-11T02:57:43;16.65;;;6.45;;
69542;SDS011;56762;49.494;11.768;2022-12-11T03:00:15;16.15;;;6.32;;
69542;SDS011;56762;49.494;11.768;2022-12-11T03:02:44;14.70;;;6.25;;
69542;SDS011;56762;49.494;11.768;2022-12-11T03:05:13;16.38;;;6.55;;
69542;SDS011;56762;49.494;11.768;2022-12-11T03:07:42;14.63;;;6.10;;
69542;SDS011;56762;49.494;11.768;2022-12-11T03:10:11;12.25;;;6.07;;
69542;SDS011;56762;49.494;11.768;2022-12-11T03:12:42;13.68;;;6.00;;
69542;SDS011;56762;49.494;11.768;2022-12-11T03:15:21;14.75;;;6.15;;
69542;SDS011;56762;49.494;11.768;2022-12-11T03:17:57;17.60;;;6.65;;
69542;SDS011;56762;49.494;11.768;2022-12-11T03:20:32;15.57;;;6.43;;
69542;SDS011;56762;49.494;11.768;2022-12-11T03:23:07;14.32;;;6.63;;
69542;SDS011;56762;49.494;11.768;2022-12-11T03:25:49;13.98;;;5.82;;
69542;SDS011;56762;49.494;11.768;2022-12-11T03:28:22;12.57;;;5.75;;
69542;SDS011;56762;49.494;11.768;2022-12-11T03:30:59;15.27;;;6.78;;
69542;SDS011;56762;49.494;11.768;2022-12-11T03:33:34;12.20;;;6.00;;
69542;SDS011;56762;49.494;11.768;2022-12-11T03:36:07;16.83;;;7.00;;
69542;SDS011;56762;49.494;11.768;2022-12-11T03:38:39;13.13;;;6.40;;
69542;SDS011;56762;49.494;11.768;2022-12-11T03:41:10;13.50;;;6.43;;
69542;SDS011;56762;49.494;11.768;2022-12-11T03:43:41;14.70;;;6.28;;
69542;SDS011;56762;49.494;11.768;2022-12-11T03:46:12;14.40;;;5.70;;
69542;SDS011;56762;49.494;11.768;2022-12-11T03:48:42;16.90;;;6.50;;
69542;SDS011;56762;49.494;11.768;2022-12-11T03:51:12;18.65;;;7.25;;
69542;SDS011;56762;49.494;11.768;2022-12-11T03:53:42;17.13;;;6.68;;
69542;SDS011;56762;49.494;11.768;2022-12-11T03:56:14;14.75;;;6.68;;
69542;SDS011;56762;49.494;11.768;2022-12-11T03:58:44;16.77;;;6.27;;
69542;SDS011;56762;49.494;11.768;2022-12-11T04:01:14;13.82;;;6.47;;
69542;SDS011;56762;49.494;11.768;2022-12-11T04:03:42;14.77;;;6.07;;
69542;SDS011;56762;49.494;11.768;2022-12-11T04:06:12;16.42;;;5.97;;
69542;SDS011;56762;49.494;11.768;2022-12-11T04:08:43;15.35;;;6.30;;
69542;SDS011;56762;49.494;11.768;2022-12-11T04:11:10;16.00;;;6.27;;
69542;SDS011;56762;49.494;11.768;2022-12-11T04:13:56;16.40;;;6.68;;
69542;SDS011;56762;49.494;11.768;2022-12-11T04:16:43;14.95;;;6.35;;
69542;SDS011;56762;49.494;11.768;2022-12-11T04:19:11;17.63;;;7.15;;
69542;SDS011;56762;49.494;11.768;2022-12-11T04:21:57;16.55;;;7.20;;
69542;SDS011;56762;49.494;11.768;2022-12-11T04:24:54;13.70;;;5.77;;
69542;SDS011;56762;49.494;11.768;2022-12-11T04:27:23;15.15;;;6.90;;
69542;SDS011;56762;49.494;11.768;2022-12-11T04:30:10;16.23;;;5.75;;
69542;SDS011;56762;49.494;11.768;2022-12-11T04:32:41;17.73;;;6.38;;
69542;SDS011;56762;49.494;11.768;2022-12-11T04:35:09;17.33;;;6.68;;
69542;SDS011;56762;49.494;11.768;2022-12-11T04:37:40;16.60;;;6.73;;
69542;SDS011;56762;49.494;11.768;2022-12-11T04:40:09;19.52;;;7.75;;
69542;SDS011;56762;49.494;11.768;2022-12-11T04:42:41;18.13;;;7.30;;
69542;SDS011;56762;49.494;11.768;2022-12-11T04:45:10;15.63;;;6.88;;
69542;SDS011;56762;49.494;11.768;2022-12-11T04:47:41;17.10;;;6.40;;
69542;SDS011;56762;49.494;11.768;2022-12-11T04:50:12;20.33;;;7.50;;
69542;SDS011;56762;49.494;11.768;2022-12-11T04:52:40;16.92;;;6.88;;
69542;SDS011;56762;49.494;11.768;2022-12-11T04:55:10;16.88;;;6.88;;
69542;SDS011;56762;49.494;11.768;2022-12-11T04:57:39;17.75;;;6.60;;
69542;SDS011;56762;49.494;11.768;2022-12-11T05:00:08;17.13;;;7.22;;
69542;SDS011;56762;49.494;11.768;2022-12-11T05:02:41;15.97;;;7.37;;
69542;SDS011;56762;49.494;11.768;2022-12-11T05:05:10;17.83;;;7.38;;
69542;SDS011;56762;49.494;11.768;2022-12-11T05:07:38;18.88;;;7.47;;
69542;SDS011;56762;49.494;11.768;2022-12-11T05:10:07;16.48;;;7.20;;
69542;SDS011;56762;49.494;11.768;2022-12-11T05:12:37;20.90;;;8.43;;
69542;SDS011;56762;49.494;11.768;2022-12-11T05:15:05;19.27;;;7.40;;
69542;SDS011;56762;49.494;11.768;2022-12-11T05:17:33;18.20;;;7.72;;
69542;SDS011;56762;49.494;11.768;2022-12-11T05:20:03;17.13;;;7.82;;
69542;SDS011;56762;49.494;11.768;2022-12-11T05:22:31;20.13;;;8.93;;
69542;SDS011;56762;49.494;11.768;2022-12-11T05:24:59;19.35;;;8.13;;
69542;SDS011;56762;49.494;11.768;2022-12-11T05:27:27;20.87;;;8.07;;
69542;SDS011;56762;49.494;11.768;2022-12-11T05:29:56;21.13;;;8.25;;
69542;SDS011;56762;49.494;11.768;2022-12-11T05:32:25;18.05;;;7.72;;
69542;SDS011;56762;49.494;11.768;2022-12-11T05:34:53;23.42;;;7.90;;
69542;SDS011;56762;49.494;11.768;2022-12-11T05:37:22;16.80;;;7.00;;
69542;SDS011;56762;49.494;11.768;2022-12-11T05:39:50;16.67;;;7.23;;
69542;SDS011;56762;49.494;11.768;2022-12-11T05:42:18;21.90;;;9.00;;
69542;SDS011;56762;49.494;11.768;2022-12-11T05:44:54;17.70;;;8.23;;
69542;SDS011;56762;49.494;11.768;2022-12-11T05:47:22;19.90;;;7.22;;
69542;SDS011;56762;49.494;11.768;2022-12-11T05:49:51;18.50;;;7.90;;
69542;SDS011;56762;49.494;11.768;2022-12-11T05:52:19;17.90;;;8.03;;
69542;SDS011;56762;49.494;11.768;2022-12-11T05:54:49;18.55;;;8.05;;
69542;SDS011;56762;49.494;11.768;2022-12-11T05:57:18;20.75;;;8.27;;
69542;SDS011;56762;49.494;11.768;2022-12-11T05:59:46;19.48;;;7.63;;
69542;SDS011;56762;49.494;11.768;2022-12-11T06:02:14;20.50;;;9.02;;
69542;SDS011;56762;49.494;11.768;2022-12-11T06:04:42;19.07;;;8.20;;
69542;SDS011;56762;49.494;11.768;2022-12-11T06:07:10;21.38;;;8.35;;
69542;SDS011;56762;49.494;11.768;2022-12-11T06:09:38;19.13;;;7.82;;
69542;SDS011;56762;49.494;11.768;2022-12-11T06:12:08;17.48;;;7.28;;
69542;SDS011;56762;49.494;11.768;2022-12-11T06:14:35;18.48;;;7.75;;
69542;SDS011;56762;49.494;11.768;2022-12-11T06:17:03;19.23;;;8.40;;
69542;SDS011;56762;49.494;11.768;2022-12-11T06:19:32;17.27;;;7.78;;
69542;SDS011;56762;49.494;11.768;2022-12-11T06:22:02;18.40;;;8.23;;
69542;SDS011;56762;49.494;11.768;2022-12-11T06:24:30;20.27;;;8.90;;
69542;SDS011;56762;49.494;11.768;2022-12-11T06:26:58;18.80;;;8.50;;
69542;SDS011;56762;49.494;11.768;2022-12-11T06:29:28;20.27;;;8.33;;
69542;SDS011;56762;49.494;11.768;2022-12-11T06:31:56;16.08;;;7.00;;
69542;SDS011;56762;49.494;11.768;2022-12-11T06:34:24;15.40;;;6.65;;
69542;SDS011;56762;49.494;11.768;2022-12-11T06:36:52;18.40;;;6.88;;
69542;SDS011;56762;49.494;11.768;2022-12-11T06:39:21;17.58;;;8.27;;
69542;SDS011;56762;49.494;11.768;2022-12-11T06:41:49;16.23;;;7.97;;
69542;SDS011;56762;49.494;11.768;2022-12-11T06:44:17;19.88;;;9.00;;
69542;SDS011;56762;49.494;11.768;2022-12-11T06:46:47;21.92;;;9.43;;
69542;SDS011;56762;49.494;11.768;2022-12-11T06:49:15;20.40;;;8.68;;
69542;SDS011;56762;49.494;11.768;2022-12-11T06:51:43;21.40;;;8.95;;
69542;SDS011;56762;49.494;11.768;2022-12-11T06:54:11;17.10;;;7.57;;
69542;SDS011;56762;49.494;11.768;2022-12-11T06:56:40;19.63;;;9.00;;
69542;SDS011;56762;49.494;11.768;2022-12-11T06:59:10;15.88;;;7.55;;
69542;SDS011;56762;49.494;11.768;2022-12-11T07:01:39;21.60;;;8.48;;
69542;SDS011;56762;49.494;11.768;2022-12-11T07:04:08;18.42;;;8.30;;
69542;SDS011;56762;49.494;11.768;2022-12-11T07:06:36;20.50;;;9.20;;
69542;SDS011;56762;49.494;11.768;2022-12-11T07:09:04;19.70;;;9.20;;
69542;SDS011;56762;49.494;11.768;2022-12-11T07:11:33;20.65;;;9.38;;
69542;SDS011;56762;49.494;11.768;2022-12-11T07:14:01;20.27;;;8.90;;
69542;SDS011;56762;49.494;11.768;2022-12-11T07:16:29;18.35;;;8.05;;
69542;SDS011;56762;49.494;11.768;2022-12-11T07:18:58;27.57;;;12.20;;
69542;SDS011;56762;49.494;11.768;2022-12-11T07:21:28;26.05;;;11.65;;
69542;SDS011;56762;49.494;11.768;2022-12-11T07:23:56;22.92;;;11.57;;
69542;SDS011;56762;49.494;11.768;2022-12-11T07:26:25;22.98;;;11.35;;
69542;SDS011;56762;49.494;11.768;2022-12-11T07:28:55;22.60;;;11.77;;
69542;SDS011;56762;49.494;11.768;2022-12-11T07:31:23;20.20;;;10.33;;
69542;SDS011;56762;49.494;11.768;2022-12-11T07:33:52;23.17;;;11.07;;
69542;SDS011;56762;49.494;11.768;2022-12-11T07:36:21;21.60;;;10.30;;
69542;SDS011;56762;49.494;11.768;2022-12-11T07:38:51;23.08;;;12.13;;
69542;SDS011;56762;49.494;11.768;2022-12-11T07:41:19;19.98;;;9.70;;
69542;SDS011;56762;49.494;11.768;2022-12-11T07:43:48;21.03;;;9.43;;
69542;SDS011;56762;49.494;11.768;2022-12-11T07:46:17;17.55;;;8.73;;
69542;SDS011;56762;49.494;11.768;2022-12-11T07:48:46;17.63;;;8.07;;
69542;SDS011;56762;49.494;11.768;2022-12-11T07:51:15;18.10;;;9.25;;
69542;SDS011;56762;49.494;11.768;2022-12-11T07:53:45;19.08;;;8.50;;
69542;SDS011;56762;49.494;11.768;2022-12-11T07:56:17;18.87;;;8.70;;
69542;SDS011;56762;49.494;11.768;2022-12-11T07:58:45;18.15;;;7.78;;
69542;SDS011;56762;49.494;11.768;2022-12-11T08:01:14;18.75;;;7.75;;
69542;SDS011;56762;49.494;11.768;2022-12-11T08:03:43;15.80;;;7.55;;
69542;SDS011;56762;49.494;11.768;2022-12-11T08:06:12;14.77;;;7.47;;
69542;SDS011;56762;49.494;11.768;2022-12-11T08:08:40;18.70;;;9.20;;
69542;SDS011;56762;49.494;11.768;2022-12-11T08:11:08;26.88;;;14.10;;
69542;SDS011;56762;49.494;11.768;2022-12-11T08:13:39;20.55;;;10.52;;
69542;SDS011;56762;49.494;11.768;2022-12-11T08:16:09;22.23;;;8.57;;
69542;SDS011;56762;49.494;11.768;2022-12-11T08:18:38;25.70;;;10.20;;
69542;SDS011;56762;49.494;11.768;2022-12-11T08:21:09;24.13;;;8.97;;
69542;SDS011;56762;49.494;11.768;2022-12-11T08:23:39;18.85;;;7.82;;
69542;SDS011;56762;49.494;11.768;2022-12-11T08:26:08;20.77;;;8.07;;
69542;SDS011;56762;49.494;11.768;2022-12-11T08:28:39;36.70;;;10.82;;
69542;SDS011;56762;49.494;11.768;2022-12-11T08:31:07;27.17;;;9.13;;
69542;SDS011;56762;49.494;11.768;2022-12-11T08:33:37;28.30;;;9.07;;
69542;SDS011;56762;49.494;11.768;2022-12-11T08:36:08;21.48;;;8.02;;
69542;SDS011;56762;49.494;11.768;2022-12-11T08:38:37;19.83;;;7.07;;
69542;SDS011;56762;49.494;11.768;2022-12-11T08:41:07;19.13;;;7.47;;
69542;SDS011;56762;49.494;11.768;2022-12-11T08:43:36;16.67;;;6.97;;
69542;SDS011;56762;49.494;11.768;2022-12-11T08:46:06;15.03;;;6.43;;
69542;SDS011;56762;49.494;11.768;2022-12-11T08:48:35;13.15;;;6.32;;
69542;SDS011;56762;49.494;11.768;2022-12-11T08:51:09;12.48;;;6.15;;
69542;SDS011;56762;49.494;11.768;2022-12-11T08:53:38;14.07;;;6.45;;
69542;SDS011;56762;49.494;11.768;2022-12-11T08:56:07;13.60;;;6.78;;
69542;SDS011;56762;49.494;11.768;2022-12-11T08:58:36;16.43;;;6.87;;
69542;SDS011;56762;49.494;11.768;2022-12-11T09:01:07;13.98;;;7.47;;
69542;SDS011;56762;49.494;11.768;2022-12-11T09:03:36;25.85;;;10.30;;
69542;SDS011;56762;49.494;11.768;2022-12-11T09:06:04;20.05;;;9.93;;
69542;SDS011;56762;49.494;11.768;2022-12-11T09:08:34;19.02;;;8.77;;
69542;SDS011;56762;49.494;11.768;2022-12-11T09:11:02;18.20;;;8.43;;
69542;SDS011;56762;49.494;11.768;2022-12-11T09:13:31;18.77;;;8.85;;
69542;SDS011;56762;49.494;11.768;2022-12-11T09:15:59;18.05;;;8.02;;
69542;SDS011;56762;49.494;11.768;2022-12-11T09:18:28;24.08;;;11.50;;
69542;SDS011;56762;49.494;11.768;2022-12-11T09:20:58;44.67;;;15.40;;
69542;SDS011;56762;49.494;11.768;2022-12-11T09:23:28;41.50;;;13.20;;
69542;SDS011;56762;49.494;11.768;2022-12-11T09:25:56;24.15;;;9.20;;
69542;SDS011;56762;49.494;11.768;2022-12-11T09:28:24;44.05;;;13.35;;
69542;SDS011;56762;49.494;11.768;2022-12-11T09:30:53;49.00;;;13.57;;
69542;SDS011;56762;49.494;11.768;2022-12-11T09:33:21;94.55;;;24.67;;
69542;SDS011;56762;49.494;11.768;2022-12-11T09:35:57;45.20;;;16.47;;
69542;SDS011;56762;49.494;11.768;2022-12-11T09:38:25;24.92;;;9.60;;
69542;SDS011;56762;49.494;11.768;2022-12-11T09:40:53;36.95;;;13.02;;
69542;SDS011;56762;49.494;11.768;2022-12-11T09:43:24;55.85;;;20.75;;
69542;SDS011;56762;49.494;11.768;2022-12-11T09:46:03;52.20;;;21.92;;
69542;SDS011;56762;49.494;11.768;2022-12-11T09:48:33;50.63;;;23.30;;
69542;SDS011;56762;49.494;11.768;2022-12-11T09:51:09;24.42;;;12.73;;
69542;SDS011;56762;49.494;11.768;2022-12-11T09:53:44;18.77;;;10.35;;
69542;SDS011;56762;49.494;11.768;2022-12-11T09:56:14;23.40;;;10.85;;
69542;SDS011;56762;49.494;11.768;2022-12-11T09:58:50;19.02;;;8.85;;
69542;SDS011;56762;49.494;11.768;2022-12-11T10:01:31;22.53;;;10.97;;
69542;SDS011;56762;49.494;11.768;2022-12-11T10:04:11;30.23;;;12.98;;
69542;SDS011;56762;49.494;11.768;2022-12-11T10:06:49;30.10;;;12.63;;
69542;SDS011;56762;49.494;11.768;2022-12-11T10:09:27;25.00;;;11.98;;
69542;SDS011;56762;49.494;11.768;2022-12-11T10:12:05;22.23;;;10.48;;
69542;SDS011;56762;49.494;11.768;2022-12-11T10:14:45;23.30;;;9.37;;
69542;SDS011;56762;49.494;11.768;2022-12-11T10:17:24;21.08;;;8.95;;
69542;SDS011;56762;49.494;11.768;2022-12-11T10:19:55;20.83;;;8.88;;
69542;SDS011;56762;49.494;11.768;2022-12-11T10:22:28;20.50;;;10.05;;
69542;SDS011;56762;49.494;11.768;2022-12-11T10:24:59;21.42;;;10.25;;
69542;SDS011;56762;49.494;11.768;2022-12-11T10:27:39;17.27;;;8.23;;
69542;SDS011;56762;49.494;11.768;2022-12-11T10:30:12;17.55;;;8.07;;
69542;SDS011;56762;49.494;11.768;2022-12-11T10:32:46;23.73;;;10.52;;
69542;SDS011;56762;49.494;11.768;2022-12-11T10:35:19;20.67;;;8.23;;
69542;SDS011;56762;49.494;11.768;2022-12-11T10:38:00;17.08;;;7.60;;
69542;SDS011;56762;49.494;11.768;2022-12-11T10:40:38;18.80;;;8.23;;
69542;SDS011;56762;49.494;11.768;2022-12-11T10:43:09;18.83;;;8.10;;
69542;SDS011;56762;49.494;11.768;2022-12-11T10:45:38;19.23;;;7.28;;
69542;SDS011;56762;49.494;11.768;2022-12-11T10:48:08;17.98;;;7.35;;
69542;SDS011;56762;49.494;11.768;2022-12-11T10:50:38;18.83;;;7.75;;
69542;SDS011;56762;49.494;11.768;2022-12-11T10:53:16;16.70;;;7.13;;
69542;SDS011;56762;49.494;11.768;2022-12-11T10:55:47;16.92;;;7.28;;
69542;SDS011;56762;49.494;11.768;2022-12-11T10:58:16;12.90;;;6.22;;
69542;SDS011;56762;49.494;11.768;2022-12-11T11:00:46;13.57;;;5.75;;
69542;SDS011;56762;49.494;11.768;2022-12-11T11:03:25;12.52;;;6.10;;
69542;SDS011;56762;49.494;11.768;2022-12-11T11:06:00;15.63;;;6.43;;
69542;SDS011;56762;49.494;11.768;2022-12-11T11:08:38;21.88;;;9.73;;
69542;SDS011;56762;49.494;11.768;2022-12-11T11:11:15;28.15;;;11.65;;
69542;SDS011;56762;49.494;11.768;2022-12-11T11:13:48;18.23;;;8.25;;
69542;SDS011;56762;49.494;11.768;2022-12-11T11:16:17;12.10;;;4.95;;
69542;SDS011;56762;49.494;11.768;2022-12-11T11:18:49;9.90;;;4.63;;
69542;SDS011;56762;49.494;11.768;2022-12-11T11:21:21;11.90;;;5.20;;
69542;SDS011;56762;49.494;11.768;2022-12-11T11:23:51;15.07;;;6.85;;
69542;SDS011;56762;49.494;11.768;2022-12-11T11:26:20;13.23;;;6.32;;
69542;SDS011;56762;49.494;11.768;2022-12-11T11:28:49;11.90;;;5.55;;
69542;SDS011;56762;49.494;11.768;2022-12-11T11:31:20;9.33;;;4.27;;
69542;SDS011;56762;49.494;11.768;2022-12-11T11:33:57;9.77;;;4.80;;
69542;SDS011;56762;49.494;11.768;2022-12-11T11:36:30;12.40;;;5.07;;
69542;SDS011;56762;49.494;11.768;2022-12-11T11:39:09;10.98;;;4.82;;
69542;SDS011;56762;49.494;11.768;2022-12-11T11:41:48;13.27;;;5.65;;
69542;SDS011;56762;49.494;11.768;2022-12-11T11:44:22;11.93;;;5.80;;
69542;SDS011;56762;49.494;11.768;2022-12-11T11:46:57;11.65;;;5.38;;
69542;SDS011;56762;49.494;11.768;2022-12-11T11:49:33;12.25;;;5.57;;
69542;SDS011;56762;49.494;11.768;2022-12-11T11:52:14;13.45;;;5.38;;
69542;SDS011;56762;49.494;11.768;2022-12-11T11:54:49;11.20;;;5.32;;
69542;SDS011;56762;49.494;11.768;2022-12-11T11:57:22;11.20;;;5.40;;
69542;SDS011;56762;49.494;11.768;2022-12-11T11:59:56;9.85;;;5.00;;
69542;SDS011;56762;49.494;11.768;2022-12-11T12:02:35;10.43;;;5.30;;
69542;SDS011;56762;49.494;11.768;2022-12-11T12:05:08;8.88;;;4.30;;
69542;SDS011;56762;49.494;11.768;2022-12-11T12:07:40;13.65;;;5.97;;
69542;SDS011;56762;49.494;11.768;2022-12-11T12:10:18;12.10;;;5.63;;
69542;SDS011;56762;49.494;11.768;2022-12-11T12:12:52;11.80;;;5.20;;
69542;SDS011;56762;49.494;11.768;2022-12-11T12:15:28;12.45;;;5.22;;
69542;SDS011;56762;49.494;11.768;2022-12-11T12:18:09;10.40;;;5.13;;
69542;SDS011;56762;49.494;11.768;2022-12-11T12:20:45;16.13;;;6.78;;
69542;SDS011;56762;49.494;11.768;2022-12-11T12:23:23;14.47;;;6.80;;
69542;SDS011;56762;49.494;11.768;2022-12-11T12:26:05;13.60;;;6.13;;
69542;SDS011;56762;49.494;11.768;2022-12-11T12:28:38;25.98;;;10.57;;
69542;SDS011;56762;49.494;11.768;2022-12-11T12:31:21;22.13;;;9.85;;
69542;SDS011;56762;49.494;11.768;2022-12-11T12:34:00;17.90;;;7.15;;
69542;SDS011;56762;49.494;11.768;2022-12-11T12:36:34;9.27;;;4.83;;
69542;SDS011;56762;49.494;11.768;2022-12-11T12:39:12;11.38;;;5.00;;
69542;SDS011;56762;49.494;11.768;2022-12-11T12:41:49;13.27;;;5.90;;
69542;SDS011;56762;49.494;11.768;2022-12-11T12:44:31;16.40;;;6.22;;
69542;SDS011;56762;49.494;11.768;2022-12-11T12:47:09;11.32;;;5.35;;
69542;SDS011;56762;49.494;11.768;2022-12-11T12:49:42;13.33;;;5.60;;
69542;SDS011;56762;49.494;11.768;2022-12-11T12:52:12;12.48;;;6.03;;
69542;SDS011;56762;49.494;11.768;2022-12-11T12:54:43;11.30;;;5.38;;
69542;SDS011;56762;49.494;11.768;2022-12-11T12:57:35;10.45;;;5.05;;
69542;SDS011;56762;49.494;11.768;2022-12-11T13:00:05;11.80;;;5.65;;
69542;SDS011;56762;49.494;11.768;2022-12-11T13:02:46;9.97;;;4.83;;
69542;SDS011;56762;49.494;11.768;2022-12-11T13:05:22;10.25;;;4.60;;
69542;SDS011;56762;49.494;11.768;2022-12-11T13:07:52;10.50;;;5.18;;
69542;SDS011;56762;49.494;11.768;2022-12-11T13:10:23;9.40;;;4.28;;
69542;SDS011;56762;49.494;11.768;2022-12-11T13:12:55;7.97;;;3.78;;
69542;SDS011;56762;49.494;11.768;2022-12-11T13:15:26;9.90;;;4.27;;
69542;SDS011;56762;49.494;11.768;2022-12-11T13:17:59;9.20;;;4.32;;
69542;SDS011;56762;49.494;11.768;2022-12-11T13:20:29;8.55;;;4.45;;
69542;SDS011;56762;49.494;11.768;2022-12-11T13:23:13;13.75;;;6.18;;
69542;SDS011;56762;49.494;11.768;2022-12-11T13:25:47;15.10;;;7.88;;
69542;SDS011;56762;49.494;11.768;2022-12-11T13:28:20;14.03;;;6.30;;
69542;SDS011;56762;49.494;11.768;2022-12-11T13:31:02;17.58;;;8.65;;
69542;SDS011;56762;49.494;11.768;2022-12-11T13:33:37;14.25;;;7.28;;
69542;SDS011;56762;49.494;11.768;2022-12-11T13:36:26;13.05;;;5.40;;
69542;SDS011;56762;49.494;11.768;2022-12-11T13:38:59;12.57;;;5.43;;
69542;SDS011;56762;49.494;11.768;2022-12-11T13:41:29;13.43;;;5.50;;
69542;SDS011;56762;49.494;11.768;2022-12-11T13:44:02;9.68;;;4.85;;
69542;SDS011;56762;49.494;11.768;2022-12-11T13:46:34;9.55;;;4.82;;
69542;SDS011;56762;49.494;11.768;2022-12-11T13:49:05;14.93;;;6.07;;
69542;SDS011;56762;49.494;11.768;2022-12-11T13:51:34;25.17;;;8.68;;
69542;SDS011;56762;49.494;11.768;2022-12-11T13:54:04;13.37;;;5.70;;
69542;SDS011;56762;49.494;11.768;2022-12-11T13:56:52;13.80;;;6.82;;
69542;SDS011;56762;49.494;11.768;2022-12-11T13:59:27;13.65;;;6.65;;
69542;SDS011;56762;49.494;11.768;2022-12-11T14:02:01;10.50;;;4.97;;
69542;SDS011;56762;49.494;11.768;2022-12-11T14:04:32;19.05;;;7.40;;
69542;SDS011;56762;49.494;11.768;2022-12-11T14:07:04;8.87;;;3.70;;
69542;SDS011;56762;49.494;11.768;2022-12-11T14:09:35;10.13;;;4.65;;
69542;SDS011;56762;49.494;11.768;2022-12-11T14:12:06;11.10;;;5.32;;
69542;SDS011;56762;49.494;11.768;2022-12-11T14:14:55;9.02;;;4.00;;
69542;SDS011;56762;49.494;11.768;2022-12-11T14:17:28;10.23;;;4.85;;
69542;SDS011;56762;49.494;11.768;2022-12-11T14:19:59;14.30;;;5.00;;
69542;SDS011;56762;49.494;11.768;2022-12-11T14:22:33;13.52;;;5.82;;
69542;SDS011;56762;49.494;11.768;2022-12-11T14:25:15;15.55;;;6.63;;
69542;SDS011;56762;49.494;11.768;2022-12-11T14:27:54;12.70;;;5.78;;
69542;SDS011;56762;49.494;11.768;2022-12-11T14:30:32;11.20;;;5.57;;
69542;SDS011;56762;49.494;11.768;2022-12-11T14:33:10;15.17;;;6.17;;
69542;SDS011;56762;49.494;11.768;2022-12-11T14:35:40;16.45;;;6.50;;
69542;SDS011;56762;49.494;11.768;2022-12-11T14:38:15;15.50;;;6.50;;
69542;SDS011;56762;49.494;11.768;2022-12-11T14:40:47;9.20;;;3.85;;
69542;SDS011;56762;49.494;11.768;2022-12-11T14:43:25;11.48;;;4.35;;
69542;SDS011;56762;49.494;11.768;2022-12-11T14:46:03;9.17;;;3.83;;
69542;SDS011;56762;49.494;11.768;2022-12-11T14:48:35;14.57;;;5.18;;